FDX327 KMEM-KBNA
Flight info
| Callsign | FDX327 |
|---|---|
| Flight time | 0h 37m |
| Altitude | 27000 |
| Route | GOETZ7 DIYAB CHSNE CHSNE3 |
| Aircraft | B722/M-SDFGRWY/C |
Departure
| Time | 2026-05-04 23:52 |
|---|---|
| Airport | Memphis International Airport (KMEM) |
Arrival
| Time | 2026-05-05 00:30 |
|---|---|
| Airport | Nashville International Airport (KBNA) |
| Time | Latitude | Longitude | Altitude | Speed | Heading |
|---|---|---|---|---|---|
| 2026-05-04 23:23 | 35.06066 | -89.95465 | 318 ft | 0 kts | 92° |
| 2026-05-04 23:40 | 35.06066 | -89.95469 | 318 ft | 2 kts | 92° |
| 2026-05-04 23:40 | 35.06066 | -89.95491 | 317 ft | 3 kts | 92° |
| 2026-05-04 23:41 | 35.06066 | -89.95489 | 318 ft | 2 kts | 94° |
| 2026-05-04 23:41 | 35.06057 | -89.95466 | 318 ft | 4 kts | 139° |
| 2026-05-04 23:41 | 35.06031 | -89.95457 | 321 ft | 4 kts | 185° |
| 2026-05-04 23:41 | 35.05977 | -89.95467 | 325 ft | 9 kts | 190° |
| 2026-05-04 23:42 | 35.05917 | -89.95499 | 328 ft | 11 kts | 221° |
| 2026-05-04 23:42 | 35.05889 | -89.95602 | 328 ft | 16 kts | 273° |
| 2026-05-04 23:42 | 35.05894 | -89.95770 | 327 ft | 23 kts | 271° |
| 2026-05-04 23:42 | 35.05899 | -89.95976 | 327 ft | 25 kts | 271° |
| 2026-05-04 23:43 | 35.05904 | -89.96205 | 321 ft | 28 kts | 271° |
| 2026-05-04 23:43 | 35.05911 | -89.96449 | 318 ft | 29 kts | 272° |
| 2026-05-04 23:43 | 35.05914 | -89.96707 | 311 ft | 32 kts | 271° |
| 2026-05-04 23:43 | 35.05930 | -89.96974 | 311 ft | 32 kts | 274° |
| 2026-05-04 23:44 | 35.05920 | -89.97181 | 309 ft | 11 kts | 211° |
| 2026-05-04 23:44 | 35.05795 | -89.97188 | 310 ft | 19 kts | 182° |
| 2026-05-04 23:44 | 35.05693 | -89.97197 | 310 ft | 19 kts | 189° |
| 2026-05-04 23:44 | 35.05606 | -89.97293 | 314 ft | 20 kts | 237° |
| 2026-05-04 23:45 | 35.05537 | -89.97416 | 325 ft | 13 kts | 236° |
| 2026-05-04 23:45 | 35.05495 | -89.97489 | 330 ft | 0 kts | 235° |
| 2026-05-04 23:50 | 35.05492 | -89.97494 | 330 ft | 6 kts | 235° |
| 2026-05-04 23:51 | 35.05443 | -89.97574 | 329 ft | 13 kts | 227° |
| 2026-05-04 23:51 | 35.05289 | -89.97618 | 327 ft | 49 kts | 178° |
| 2026-05-04 23:51 | 35.04727 | -89.97606 | 316 ft | 107 kts | 177° |
| 2026-05-04 23:51 | 35.03886 | -89.97591 | 362 ft | 129 kts | 179° |
| 2026-05-04 23:52 | 35.03013 | -89.97528 | 727 ft | 123 kts | 177° |
| 2026-05-04 23:52 | 35.02130 | -89.97433 | 932 ft | 131 kts | 174° |
| 2026-05-04 23:52 | 35.01233 | -89.97167 | 1167 ft | 136 kts | 169° |
| 2026-05-04 23:52 | 35.00328 | -89.96758 | 1581 ft | 137 kts | 167° |
| 2026-05-04 23:53 | 34.99415 | -89.96425 | 2057 ft | 137 kts | 171° |
| 2026-05-04 23:53 | 34.98454 | -89.96097 | 2452 ft | 154 kts | 169° |
| 2026-05-04 23:53 | 34.97386 | -89.95680 | 2974 ft | 164 kts | 166° |
| 2026-05-04 23:53 | 34.96279 | -89.95274 | 3596 ft | 166 kts | 171° |
| 2026-05-04 23:54 | 34.95197 | -89.94988 | 3792 ft | 170 kts | 173° |
| 2026-05-04 23:54 | 34.93882 | -89.94670 | 4088 ft | 206 kts | 168° |
| 2026-05-04 23:54 | 34.92709 | -89.93570 | 5040 ft | 224 kts | 124° |
| 2026-05-04 23:54 | 34.92363 | -89.91708 | 6151 ft | 237 kts | 90° |
| 2026-05-04 23:55 | 34.92589 | -89.89688 | 7054 ft | 240 kts | 82° |
| 2026-05-04 23:55 | 34.92779 | -89.87680 | 8003 ft | 242 kts | 90° |
| 2026-05-04 23:55 | 34.92916 | -89.83360 | 9316 ft | 273 kts | 74° |
| 2026-05-04 23:56 | 34.93676 | -89.81302 | 10517 ft | 253 kts | 59° |
| 2026-05-04 23:56 | 34.94579 | -89.79529 | 11579 ft | 248 kts | 54° |
| 2026-05-04 23:56 | 34.95555 | -89.77783 | 12295 ft | 249 kts | 54° |
| 2026-05-04 23:56 | 34.96484 | -89.75984 | 12961 ft | 257 kts | 56° |
| 2026-05-04 23:57 | 34.97440 | -89.73981 | 13043 ft | 291 kts | 58° |
| 2026-05-04 23:57 | 34.98428 | -89.71775 | 13774 ft | 293 kts | 59° |
| 2026-05-04 23:57 | 34.99422 | -89.69613 | 14462 ft | 301 kts | 57° |
| 2026-05-04 23:57 | 35.00544 | -89.67322 | 14671 ft | 326 kts | 56° |
| 2026-05-04 23:58 | 35.01694 | -89.64901 | 15400 ft | 328 kts | 58° |
| 2026-05-04 23:58 | 35.02823 | -89.62433 | 15876 ft | 345 kts | 58° |
| 2026-05-04 23:58 | 35.04002 | -89.59816 | 16449 ft | 352 kts | 58° |
| 2026-05-04 23:58 | 35.05148 | -89.57208 | 17399 ft | 353 kts | 58° |
| 2026-05-04 23:59 | 35.06331 | -89.54499 | 17765 ft | 368 kts | 59° |
| 2026-05-04 23:59 | 35.07513 | -89.51713 | 18502 ft | 370 kts | 59° |
| 2026-05-04 23:59 | 35.08726 | -89.48884 | 18618 ft | 391 kts | 57° |
| 2026-05-04 23:59 | 35.10217 | -89.46089 | 19206 ft | 392 kts | 51° |
| 2026-05-05 00:00 | 35.11792 | -89.43364 | 19902 ft | 395 kts | 52° |
| 2026-05-05 00:00 | 35.12774 | -89.41474 | 20262 ft | 400 kts | 56° |
| 2026-05-05 00:00 | 35.14531 | -89.37415 | 21044 ft | 407 kts | 59° |
| 2026-05-05 00:00 | 35.15873 | -89.34346 | 21603 ft | 410 kts | 57° |
| 2026-05-05 00:01 | 35.17332 | -89.31343 | 22143 ft | 413 kts | 55° |
| 2026-05-05 00:01 | 35.18804 | -89.28308 | 22679 ft | 418 kts | 56° |
| 2026-05-05 00:01 | 35.20229 | -89.25183 | 23199 ft | 422 kts | 57° |
| 2026-05-05 00:01 | 35.21588 | -89.21981 | 23689 ft | 427 kts | 62° |
| 2026-05-05 00:02 | 35.22673 | -89.18626 | 24127 ft | 432 kts | 68° |
| 2026-05-05 00:02 | 35.23525 | -89.15081 | 24560 ft | 437 kts | 72° |
| 2026-05-05 00:02 | 35.24332 | -89.11484 | 24959 ft | 439 kts | 68° |
| 2026-05-05 00:02 | 35.25411 | -89.07997 | 25387 ft | 439 kts | 62° |
| 2026-05-05 00:03 | 35.26735 | -89.04623 | 25814 ft | 440 kts | 58° |
| 2026-05-05 00:03 | 35.28120 | -89.01263 | 26217 ft | 443 kts | 60° |
| 2026-05-05 00:03 | 35.29376 | -88.97786 | 26633 ft | 448 kts | 63° |
| 2026-05-05 00:03 | 35.30563 | -88.94230 | 26911 ft | 454 kts | 63° |
| 2026-05-05 00:04 | 35.31838 | -88.90682 | 26917 ft | 465 kts | 60° |
| 2026-05-05 00:04 | 35.33220 | -88.87051 | 26926 ft | 474 kts | 61° |
| 2026-05-05 00:04 | 35.34569 | -88.83364 | 26926 ft | 473 kts | 63° |
| 2026-05-05 00:04 | 35.35861 | -88.79667 | 26930 ft | 472 kts | 63° |
| 2026-05-05 00:05 | 35.37178 | -88.75970 | 26928 ft | 472 kts | 62° |
| 2026-05-05 00:05 | 35.38526 | -88.72301 | 26936 ft | 471 kts | 62° |
| 2026-05-05 00:05 | 35.39847 | -88.68675 | 26833 ft | 473 kts | 63° |
| 2026-05-05 00:05 | 35.41173 | -88.64945 | 26508 ft | 470 kts | 63° |
| 2026-05-05 00:06 | 35.42460 | -88.61322 | 26178 ft | 466 kts | 63° |
| 2026-05-05 00:06 | 35.43767 | -88.57700 | 25865 ft | 464 kts | 63° |
| 2026-05-05 00:06 | 35.45072 | -88.54087 | 25535 ft | 462 kts | 63° |
| 2026-05-05 00:06 | 35.46356 | -88.50487 | 25141 ft | 459 kts | 63° |
| 2026-05-05 00:07 | 35.47631 | -88.46904 | 24678 ft | 456 kts | 63° |
| 2026-05-05 00:07 | 35.48894 | -88.43369 | 24206 ft | 450 kts | 64° |
| 2026-05-05 00:07 | 35.50151 | -88.39855 | 23756 ft | 448 kts | 64° |
| 2026-05-05 00:07 | 35.51396 | -88.36361 | 23262 ft | 445 kts | 64° |
| 2026-05-05 00:08 | 35.52628 | -88.32892 | 22719 ft | 441 kts | 64° |
| 2026-05-05 00:08 | 35.53850 | -88.29456 | 22188 ft | 438 kts | 64° |
| 2026-05-05 00:08 | 35.55063 | -88.26042 | 21661 ft | 434 kts | 64° |
| 2026-05-05 00:08 | 35.56265 | -88.22655 | 21212 ft | 431 kts | 64° |
| 2026-05-05 00:09 | 35.57456 | -88.19290 | 20760 ft | 428 kts | 64° |
| 2026-05-05 00:09 | 35.58641 | -88.15941 | 20312 ft | 425 kts | 64° |
| 2026-05-05 00:09 | 35.59814 | -88.12629 | 19875 ft | 440 kts | 64° |
| 2026-05-05 00:09 | 35.61079 | -88.09064 | 19476 ft | 463 kts | 64° |
| 2026-05-05 00:10 | 35.62350 | -88.05443 | 19059 ft | 458 kts | 65° |
| 2026-05-05 00:10 | 35.63605 | -88.01864 | 18641 ft | 454 kts | 65° |
| 2026-05-05 00:10 | 35.64858 | -87.98316 | 18216 ft | 451 kts | 65° |
| 2026-05-05 00:10 | 35.66103 | -87.94785 | 17747 ft | 448 kts | 65° |
| 2026-05-05 00:11 | 35.67332 | -87.91277 | 17277 ft | 446 kts | 65° |
| 2026-05-05 00:11 | 35.68558 | -87.87778 | 16808 ft | 444 kts | 65° |
| 2026-05-05 00:11 | 35.69778 | -87.84297 | 16357 ft | 442 kts | 65° |
| 2026-05-05 00:11 | 35.70991 | -87.80835 | 15879 ft | 440 kts | 65° |
| 2026-05-05 00:12 | 35.72195 | -87.77389 | 15415 ft | 437 kts | 65° |
| 2026-05-05 00:12 | 35.73394 | -87.73956 | 14998 ft | 436 kts | 66° |
| 2026-05-05 00:12 | 35.74586 | -87.70534 | 14636 ft | 434 kts | 66° |
| 2026-05-05 00:12 | 35.75776 | -87.67123 | 14274 ft | 434 kts | 66° |
| 2026-05-05 00:13 | 35.76962 | -87.63712 | 13926 ft | 432 kts | 66° |
| 2026-05-05 00:13 | 35.78142 | -87.60319 | 13556 ft | 430 kts | 66° |
| 2026-05-05 00:13 | 35.79315 | -87.56945 | 13166 ft | 427 kts | 66° |
| 2026-05-05 00:13 | 35.80463 | -87.53629 | 12821 ft | 425 kts | 66° |
| 2026-05-05 00:14 | 35.81623 | -87.50277 | 12513 ft | 423 kts | 66° |
| 2026-05-05 00:14 | 35.82780 | -87.46941 | 12258 ft | 422 kts | 66° |
| 2026-05-05 00:14 | 35.83943 | -87.43623 | 12006 ft | 421 kts | 66° |
| 2026-05-05 00:14 | 35.85116 | -87.40328 | 11758 ft | 419 kts | 66° |
| 2026-05-05 00:15 | 35.86280 | -87.37039 | 11513 ft | 418 kts | 66° |
| 2026-05-05 00:15 | 35.87426 | -87.33752 | 11268 ft | 416 kts | 66° |
| 2026-05-05 00:15 | 35.88571 | -87.30478 | 11019 ft | 415 kts | 66° |
| 2026-05-05 00:15 | 35.89719 | -87.27224 | 10777 ft | 413 kts | 66° |
| 2026-05-05 00:16 | 35.90857 | -87.23977 | 10537 ft | 412 kts | 66° |
| 2026-05-05 00:16 | 35.91986 | -87.20732 | 10302 ft | 410 kts | 66° |
| 2026-05-05 00:16 | 35.93120 | -87.17505 | 10068 ft | 408 kts | 66° |
| 2026-05-05 00:16 | 35.94234 | -87.14323 | 10035 ft | 395 kts | 66° |
| 2026-05-05 00:17 | 35.95303 | -87.11251 | 10023 ft | 394 kts | 67° |
| 2026-05-05 00:17 | 35.96392 | -87.08124 | 10014 ft | 397 kts | 67° |
| 2026-05-05 00:17 | 35.97485 | -87.04986 | 10008 ft | 397 kts | 66° |
| 2026-05-05 00:17 | 35.98579 | -87.01845 | 10000 ft | 397 kts | 67° |
| 2026-05-05 00:18 | 35.99657 | -86.98742 | 9998 ft | 395 kts | 67° |
| 2026-05-05 00:18 | 36.00690 | -86.95766 | 9984 ft | 355 kts | 67° |
| 2026-05-05 00:18 | 36.01610 | -86.93113 | 9980 ft | 322 kts | 66° |
| 2026-05-05 00:18 | 36.02480 | -86.90605 | 9972 ft | 316 kts | 66° |
| 2026-05-05 00:19 | 36.03344 | -86.88108 | 9973 ft | 317 kts | 66° |
| 2026-05-05 00:19 | 36.04225 | -86.85594 | 9682 ft | 318 kts | 64° |
| 2026-05-05 00:19 | 36.05432 | -86.83333 | 9372 ft | 315 kts | 45° |
| 2026-05-05 00:19 | 36.07087 | -86.81583 | 9056 ft | 313 kts | 29° |
| 2026-05-05 00:20 | 36.09033 | -86.80442 | 8619 ft | 309 kts | 18° |
| 2026-05-05 00:20 | 36.11071 | -86.79623 | 8199 ft | 307 kts | 13° |
| 2026-05-05 00:20 | 36.13118 | -86.78925 | 7965 ft | 303 kts | 13° |
| 2026-05-05 00:20 | 36.15158 | -86.78154 | 7527 ft | 308 kts | 15° |
| 2026-05-05 00:21 | 36.17200 | -86.77329 | 7038 ft | 309 kts | 15° |
| 2026-05-05 00:21 | 36.19229 | -86.76558 | 6532 ft | 309 kts | 14° |
| 2026-05-05 00:21 | 36.21296 | -86.75804 | 6053 ft | 309 kts | 15° |
| 2026-05-05 00:21 | 36.23359 | -86.75035 | 5553 ft | 309 kts | 15° |
| 2026-05-05 00:22 | 36.25414 | -86.74254 | 5063 ft | 309 kts | 15° |
| 2026-05-05 00:22 | 36.27463 | -86.73469 | 4566 ft | 308 kts | 16° |
| 2026-05-05 00:22 | 36.29499 | -86.72681 | 4149 ft | 305 kts | 15° |
| 2026-05-05 00:22 | 36.31492 | -86.71908 | 3972 ft | 292 kts | 15° |
| 2026-05-05 00:23 | 36.33372 | -86.71166 | 3958 ft | 276 kts | 16° |
| 2026-05-05 00:23 | 36.35152 | -86.70448 | 3966 ft | 261 kts | 15° |
| 2026-05-05 00:23 | 36.36812 | -86.69681 | 3965 ft | 251 kts | 28° |
| 2026-05-05 00:23 | 36.38073 | -86.68177 | 3525 ft | 258 kts | 65° |
| 2026-05-05 00:24 | 36.38410 | -86.66030 | 3054 ft | 256 kts | 104° |
| 2026-05-05 00:24 | 36.37664 | -86.64205 | 3005 ft | 227 kts | 146° |
| 2026-05-05 00:24 | 36.36350 | -86.63342 | 3011 ft | 209 kts | 168° |
| 2026-05-05 00:24 | 36.34969 | -86.62840 | 3017 ft | 205 kts | 169° |
| 2026-05-05 00:25 | 36.33617 | -86.62364 | 3013 ft | 204 kts | 169° |
| 2026-05-05 00:25 | 36.32254 | -86.61897 | 3009 ft | 205 kts | 169° |
| 2026-05-05 00:25 | 36.30881 | -86.61516 | 3011 ft | 193 kts | 180° |
| 2026-05-05 00:25 | 36.29645 | -86.61603 | 2994 ft | 166 kts | 197° |
| 2026-05-05 00:26 | 36.28571 | -86.62034 | 2987 ft | 163 kts | 202° |
| 2026-05-05 00:26 | 36.27503 | -86.62482 | 2988 ft | 164 kts | 201° |
| 2026-05-05 00:26 | 36.26424 | -86.62892 | 2993 ft | 161 kts | 200° |
| 2026-05-05 00:26 | 36.25355 | -86.63325 | 2911 ft | 162 kts | 200° |
| 2026-05-05 00:27 | 36.24313 | -86.63721 | 2714 ft | 147 kts | 200° |
| 2026-05-05 00:27 | 36.23364 | -86.64107 | 2522 ft | 142 kts | 200° |
| 2026-05-05 00:27 | 36.22443 | -86.64456 | 2350 ft | 137 kts | 199° |
| 2026-05-05 00:27 | 36.21535 | -86.64824 | 2169 ft | 137 kts | 200° |
| 2026-05-05 00:28 | 36.20618 | -86.65173 | 1997 ft | 141 kts | 200° |
| 2026-05-05 00:28 | 36.19703 | -86.65544 | 1804 ft | 135 kts | 200° |
| 2026-05-05 00:28 | 36.18795 | -86.65889 | 1622 ft | 139 kts | 199° |
| 2026-05-05 00:28 | 36.17872 | -86.66264 | 1416 ft | 142 kts | 198° |
| 2026-05-05 00:29 | 36.16908 | -86.66631 | 1215 ft | 149 kts | 200° |
| 2026-05-05 00:29 | 36.15921 | -86.67018 | 1023 ft | 144 kts | 199° |
| 2026-05-05 00:29 | 36.14962 | -86.67393 | 847 ft | 146 kts | 199° |
| 2026-05-05 00:29 | 36.13973 | -86.67785 | 627 ft | 147 kts | 199° |
| 2026-05-05 00:30 | 36.13126 | -86.68120 | 581 ft | 98 kts | 196° |
| 2026-05-05 00:30 | 36.12652 | -86.68303 | 584 ft | 41 kts | 197° |
| 2026-05-05 00:30 | 36.12439 | -86.68387 | 586 ft | 23 kts | 198° |
| 2026-05-05 00:30 | 36.12359 | -86.68451 | 588 ft | 13 kts | 237° |
| 2026-05-05 00:31 | 36.12325 | -86.68531 | 589 ft | 3 kts | 250° |
| 2026-05-05 00:31 | 36.12330 | -86.68554 | 589 ft | 3 kts | 311° |
| 2026-05-05 00:31 | 36.12345 | -86.68565 | 589 ft | 0 kts | 339° |
| 2026-05-05 00:32 | 36.12364 | -86.68569 | 588 ft | 13 kts | 359° |
| 2026-05-05 00:32 | 36.12467 | -86.68536 | 587 ft | 17 kts | 18° |
| 2026-05-05 00:32 | 36.12596 | -86.68485 | 585 ft | 21 kts | 17° |
| 2026-05-05 00:32 | 36.12681 | -86.68453 | 583 ft | 13 kts | 12° |
| 2026-05-05 00:33 | 36.12763 | -86.68493 | 584 ft | 14 kts | 329° |
| 2026-05-05 00:33 | 36.12814 | -86.68579 | 583 ft | 10 kts | 287° |
| 2026-05-05 00:33 | 36.12819 | -86.68597 | 586 ft | 0 kts | 287° |